sensor_id;sensor_type;location;lat;lon;timestamp;P1;durP1;ratioP1;P2;durP2;ratioP2
16228;SDS011;8222;51.462;12.630;2023-03-01T00:01:00;10.73;;;7.57;;
16228;SDS011;8222;51.462;12.630;2023-03-01T00:03:30;17.70;;;11.13;;
16228;SDS011;8222;51.462;12.630;2023-03-01T00:05:59;11.27;;;9.00;;
16228;SDS011;8222;51.462;12.630;2023-03-01T00:08:25;11.10;;;8.17;;
16228;SDS011;8222;51.462;12.630;2023-03-01T00:11:01;10.00;;;7.63;;
16228;SDS011;8222;51.462;12.630;2023-03-01T00:13:33;14.55;;;10.85;;
16228;SDS011;8222;51.462;12.630;2023-03-01T00:16:01;11.07;;;9.83;;
16228;SDS011;8222;51.462;12.630;2023-03-01T00:18:36;10.40;;;8.57;;
16228;SDS011;8222;51.462;12.630;2023-03-01T00:21:04;10.30;;;7.47;;
16228;SDS011;8222;51.462;12.630;2023-03-01T00:23:31;11.80;;;8.93;;
16228;SDS011;8222;51.462;12.630;2023-03-01T00:25:58;7.73;;;6.37;;
16228;SDS011;8222;51.462;12.630;2023-03-01T00:28:24;10.73;;;7.77;;
16228;SDS011;8222;51.462;12.630;2023-03-01T00:30:49;10.77;;;7.78;;
16228;SDS011;8222;51.462;12.630;2023-03-01T00:33:15;8.67;;;7.87;;
16228;SDS011;8222;51.462;12.630;2023-03-01T00:35:41;10.70;;;8.00;;
16228;SDS011;8222;51.462;12.630;2023-03-01T00:38:06;8.83;;;6.53;;
16228;SDS011;8222;51.462;12.630;2023-03-01T00:40:34;11.57;;;7.63;;
16228;SDS011;8222;51.462;12.630;2023-03-01T00:43:01;10.23;;;7.10;;
16228;SDS011;8222;51.462;12.630;2023-03-01T00:45:27;9.13;;;6.60;;
16228;SDS011;8222;51.462;12.630;2023-03-01T00:47:53;12.50;;;7.57;;
16228;SDS011;8222;51.462;12.630;2023-03-01T00:50:21;10.63;;;7.27;;
16228;SDS011;8222;51.462;12.630;2023-03-01T00:52:46;11.10;;;6.40;;
16228;SDS011;8222;51.462;12.630;2023-03-01T00:55:12;8.43;;;7.07;;
16228;SDS011;8222;51.462;12.630;2023-03-01T00:57:38;11.57;;;7.40;;
16228;SDS011;8222;51.462;12.630;2023-03-01T01:00:04;7.33;;;6.60;;
16228;SDS011;8222;51.462;12.630;2023-03-01T01:02:34;10.90;;;9.75;;
16228;SDS011;8222;51.462;12.630;2023-03-01T01:05:00;10.47;;;7.83;;
16228;SDS011;8222;51.462;12.630;2023-03-01T01:07:26;10.03;;;7.43;;
16228;SDS011;8222;51.462;12.630;2023-03-01T01:09:52;9.17;;;6.70;;
16228;SDS011;8222;51.462;12.630;2023-03-01T01:12:20;8.70;;;5.27;;
16228;SDS011;8222;51.462;12.630;2023-03-01T01:14:46;10.70;;;9.25;;
16228;SDS011;8222;51.462;12.630;2023-03-01T01:17:11;7.87;;;7.17;;
16228;SDS011;8222;51.462;12.630;2023-03-01T01:19:37;8.70;;;6.60;;
16228;SDS011;8222;51.462;12.630;2023-03-01T01:22:03;9.90;;;6.70;;
16228;SDS011;8222;51.462;12.630;2023-03-01T01:24:29;10.17;;;6.83;;
16228;SDS011;8222;51.462;12.630;2023-03-01T01:26:54;7.43;;;5.80;;
16228;SDS011;8222;51.462;12.630;2023-03-01T01:29:20;8.00;;;6.73;;
16228;SDS011;8222;51.462;12.630;2023-03-01T01:31:48;11.40;;;7.27;;
16228;SDS011;8222;51.462;12.630;2023-03-01T01:34:14;9.53;;;5.97;;
16228;SDS011;8222;51.462;12.630;2023-03-01T01:36:42;7.07;;;5.90;;
16228;SDS011;8222;51.462;12.630;2023-03-01T01:39:08;6.60;;;5.97;;
16228;SDS011;8222;51.462;12.630;2023-03-01T01:41:38;9.43;;;7.67;;
16228;SDS011;8222;51.462;12.630;2023-03-01T01:44:23;11.30;;;9.05;;
16228;SDS011;8222;51.462;12.630;2023-03-01T01:46:58;10.75;;;8.70;;
16228;SDS011;8222;51.462;12.630;2023-03-01T01:49:37;8.37;;;7.23;;
16228;SDS011;8222;51.462;12.630;2023-03-01T01:52:20;10.48;;;9.30;;
16228;SDS011;8222;51.462;12.630;2023-03-01T01:55:11;7.80;;;6.43;;
16228;SDS011;8222;51.462;12.630;2023-03-01T01:57:43;9.20;;;6.27;;
16228;SDS011;8222;51.462;12.630;2023-03-01T02:00:14;8.60;;;6.10;;
16228;SDS011;8222;51.462;12.630;2023-03-01T02:02:42;6.43;;;4.97;;
16228;SDS011;8222;51.462;12.630;2023-03-01T02:05:26;10.00;;;8.35;;
16228;SDS011;8222;51.462;12.630;2023-03-01T02:08:06;8.77;;;6.93;;
16228;SDS011;8222;51.462;12.630;2023-03-01T02:10:33;8.13;;;6.57;;
16228;SDS011;8222;51.462;12.630;2023-03-01T02:13:00;7.53;;;5.73;;
16228;SDS011;8222;51.462;12.630;2023-03-01T02:15:31;6.27;;;5.63;;
16228;SDS011;8222;51.462;12.630;2023-03-01T02:17:58;7.03;;;6.33;;
16228;SDS011;8222;51.462;12.630;2023-03-01T02:20:40;10.53;;;8.60;;
16228;SDS011;8222;51.462;12.630;2023-03-01T02:23:22;7.27;;;6.57;;
16228;SDS011;8222;51.462;12.630;2023-03-01T02:28:33;6.97;;;6.10;;
16228;SDS011;8222;51.462;12.630;2023-03-01T02:31:04;7.00;;;6.05;;
16228;SDS011;8222;51.462;12.630;2023-03-01T02:33:50;9.43;;;8.07;;
16228;SDS011;8222;51.462;12.630;2023-03-01T02:36:21;8.57;;;7.50;;
16228;SDS011;8222;51.462;12.630;2023-03-01T02:38:50;10.50;;;9.23;;
16228;SDS011;8222;51.462;12.630;2023-03-01T02:41:19;9.73;;;8.35;;
16228;SDS011;8222;51.462;12.630;2023-03-01T02:43:45;10.97;;;6.93;;
16228;SDS011;8222;51.462;12.630;2023-03-01T02:46:16;6.47;;;4.87;;
16228;SDS011;8222;51.462;12.630;2023-03-01T02:48:49;7.77;;;5.40;;
16228;SDS011;8222;51.462;12.630;2023-03-01T02:57:01;9.20;;;5.93;;
16228;SDS011;8222;51.462;12.630;2023-03-01T02:59:29;5.23;;;4.80;;
16228;SDS011;8222;51.462;12.630;2023-03-01T03:02:04;7.53;;;5.97;;
16228;SDS011;8222;51.462;12.630;2023-03-01T03:04:30;8.67;;;6.30;;
16228;SDS011;8222;51.462;12.630;2023-03-01T03:06:56;6.67;;;5.27;;
16228;SDS011;8222;51.462;12.630;2023-03-01T03:09:22;9.03;;;5.37;;
16228;SDS011;8222;51.462;12.630;2023-03-01T03:11:48;6.17;;;5.50;;
16228;SDS011;8222;51.462;12.630;2023-03-01T03:14:14;12.10;;;8.70;;
16228;SDS011;8222;51.462;12.630;2023-03-01T03:16:42;8.37;;;5.93;;
16228;SDS011;8222;51.462;12.630;2023-03-01T03:19:09;9.75;;;8.02;;
16228;SDS011;8222;51.462;12.630;2023-03-01T03:21:35;10.77;;;8.75;;
16228;SDS011;8222;51.462;12.630;2023-03-01T03:24:02;10.33;;;6.97;;
16228;SDS011;8222;51.462;12.630;2023-03-01T03:26:27;7.97;;;6.57;;
16228;SDS011;8222;51.462;12.630;2023-03-01T03:28:53;9.30;;;6.23;;
16228;SDS011;8222;51.462;12.630;2023-03-01T03:31:19;7.00;;;5.87;;
16228;SDS011;8222;51.462;12.630;2023-03-01T03:33:47;5.27;;;4.83;;
16228;SDS011;8222;51.462;12.630;2023-03-01T03:36:16;7.00;;;5.83;;
16228;SDS011;8222;51.462;12.630;2023-03-01T03:38:44;6.27;;;5.67;;
16228;SDS011;8222;51.462;12.630;2023-03-01T03:41:13;6.50;;;5.83;;
16228;SDS011;8222;51.462;12.630;2023-03-01T03:43:40;6.17;;;5.53;;
16228;SDS011;8222;51.462;12.630;2023-03-01T03:46:07;6.67;;;5.30;;
16228;SDS011;8222;51.462;12.630;2023-03-01T03:48:37;8.30;;;6.00;;
16228;SDS011;8222;51.462;12.630;2023-03-01T03:51:06;5.70;;;4.90;;
16228;SDS011;8222;51.462;12.630;2023-03-01T03:53:32;8.20;;;5.97;;
16228;SDS011;8222;51.462;12.630;2023-03-01T03:55:58;6.88;;;5.50;;
16228;SDS011;8222;51.462;12.630;2023-03-01T03:58:26;12.35;;;9.15;;
16228;SDS011;8222;51.462;12.630;2023-03-01T04:00:53;10.55;;;8.90;;
16228;SDS011;8222;51.462;12.630;2023-03-01T04:03:21;8.95;;;7.93;;
16228;SDS011;8222;51.462;12.630;2023-03-01T04:05:49;10.55;;;9.00;;
16228;SDS011;8222;51.462;12.630;2023-03-01T04:08:16;10.80;;;8.32;;
16228;SDS011;8222;51.462;12.630;2023-03-01T04:10:45;9.60;;;8.50;;
16228;SDS011;8222;51.462;12.630;2023-03-01T04:13:13;8.07;;;7.07;;
16228;SDS011;8222;51.462;12.630;2023-03-01T04:15:41;6.63;;;6.00;;
16228;SDS011;8222;51.462;12.630;2023-03-01T04:18:13;8.37;;;5.97;;
16228;SDS011;8222;51.462;12.630;2023-03-01T04:20:41;7.77;;;6.03;;
16228;SDS011;8222;51.462;12.630;2023-03-01T04:23:12;5.80;;;4.53;;
16228;SDS011;8222;51.462;12.630;2023-03-01T04:28:27;7.50;;;6.33;;
16228;SDS011;8222;51.462;12.630;2023-03-01T04:31:08;5.10;;;4.53;;
16228;SDS011;8222;51.462;12.630;2023-03-01T04:33:41;11.93;;;5.57;;
16228;SDS011;8222;51.462;12.630;2023-03-01T04:36:09;6.73;;;5.70;;
16228;SDS011;8222;51.462;12.630;2023-03-01T04:38:36;11.20;;;5.60;;
16228;SDS011;8222;51.462;12.630;2023-03-01T04:41:03;6.57;;;4.77;;
16228;SDS011;8222;51.462;12.630;2023-03-01T04:43:30;7.57;;;5.27;;
16228;SDS011;8222;51.462;12.630;2023-03-01T04:46:00;8.02;;;5.93;;
16228;SDS011;8222;51.462;12.630;2023-03-01T04:48:27;9.48;;;8.10;;
16228;SDS011;8222;51.462;12.630;2023-03-01T04:50:56;7.93;;;5.77;;
16228;SDS011;8222;51.462;12.630;2023-03-01T04:53:21;6.57;;;5.97;;
16228;SDS011;8222;51.462;12.630;2023-03-01T04:55:47;9.40;;;7.15;;
16228;SDS011;8222;51.462;12.630;2023-03-01T04:58:13;6.87;;;6.13;;
16228;SDS011;8222;51.462;12.630;2023-03-01T05:00:38;6.50;;;5.37;;
16228;SDS011;8222;51.462;12.630;2023-03-01T05:03:04;8.73;;;7.43;;
16228;SDS011;8222;51.462;12.630;2023-03-01T05:05:34;6.70;;;5.77;;
16228;SDS011;8222;51.462;12.630;2023-03-01T05:08:03;9.15;;;7.60;;
16228;SDS011;8222;51.462;12.630;2023-03-01T05:10:32;11.43;;;7.80;;
16228;SDS011;8222;51.462;12.630;2023-03-01T05:13:00;8.30;;;6.77;;
16228;SDS011;8222;51.462;12.630;2023-03-01T05:15:27;6.13;;;4.70;;
16228;SDS011;8222;51.462;12.630;2023-03-01T05:17:56;9.30;;;6.67;;
16228;SDS011;8222;51.462;12.630;2023-03-01T05:20:24;8.30;;;6.20;;
16228;SDS011;8222;51.462;12.630;2023-03-01T05:22:51;5.93;;;5.23;;
16228;SDS011;8222;51.462;12.630;2023-03-01T05:25:21;8.57;;;5.00;;
16228;SDS011;8222;51.462;12.630;2023-03-01T05:27:47;7.47;;;5.63;;
16228;SDS011;8222;51.462;12.630;2023-03-01T05:30:13;11.20;;;7.93;;
16228;SDS011;8222;51.462;12.630;2023-03-01T05:32:46;10.17;;;7.83;;
16228;SDS011;8222;51.462;12.630;2023-03-01T05:35:13;7.50;;;5.67;;
16228;SDS011;8222;51.462;12.630;2023-03-01T05:37:41;6.33;;;5.33;;
16228;SDS011;8222;51.462;12.630;2023-03-01T05:40:09;6.90;;;4.80;;
16228;SDS011;8222;51.462;12.630;2023-03-01T05:42:41;7.13;;;5.87;;
16228;SDS011;8222;51.462;12.630;2023-03-01T05:45:08;7.10;;;5.50;;
16228;SDS011;8222;51.462;12.630;2023-03-01T05:47:35;5.97;;;4.90;;
16228;SDS011;8222;51.462;12.630;2023-03-01T05:50:01;8.83;;;4.80;;
16228;SDS011;8222;51.462;12.630;2023-03-01T05:52:28;5.03;;;4.50;;
16228;SDS011;8222;51.462;12.630;2023-03-01T05:54:54;5.57;;;4.03;;
16228;SDS011;8222;51.462;12.630;2023-03-01T05:57:20;8.97;;;5.90;;
16228;SDS011;8222;51.462;12.630;2023-03-01T05:59:46;6.43;;;5.83;;
16228;SDS011;8222;51.462;12.630;2023-03-01T06:02:11;7.47;;;5.43;;
16228;SDS011;8222;51.462;12.630;2023-03-01T06:04:37;10.00;;;5.20;;
16228;SDS011;8222;51.462;12.630;2023-03-01T06:07:05;7.20;;;5.53;;
16228;SDS011;8222;51.462;12.630;2023-03-01T06:09:30;8.40;;;7.22;;
16228;SDS011;8222;51.462;12.630;2023-03-01T06:11:56;10.43;;;8.03;;
16228;SDS011;8222;51.462;12.630;2023-03-01T06:14:22;5.63;;;5.13;;
16228;SDS011;8222;51.462;12.630;2023-03-01T06:16:47;6.17;;;5.53;;
16228;SDS011;8222;51.462;12.630;2023-03-01T06:19:14;11.18;;;7.35;;
16228;SDS011;8222;51.462;12.630;2023-03-01T06:21:40;10.25;;;8.88;;
16228;SDS011;8222;51.462;12.630;2023-03-01T06:24:06;8.07;;;6.93;;
16228;SDS011;8222;51.462;12.630;2023-03-01T06:26:34;7.50;;;6.00;;
16228;SDS011;8222;51.462;12.630;2023-03-01T06:28:59;6.20;;;5.60;;
16228;SDS011;8222;51.462;12.630;2023-03-01T06:31:25;9.23;;;6.87;;
16228;SDS011;8222;51.462;12.630;2023-03-01T06:33:51;10.47;;;6.83;;
16228;SDS011;8222;51.462;12.630;2023-03-01T06:36:16;9.55;;;8.18;;
16228;SDS011;8222;51.462;12.630;2023-03-01T06:38:43;9.88;;;8.82;;
16228;SDS011;8222;51.462;12.630;2023-03-01T06:41:09;7.60;;;6.00;;
16228;SDS011;8222;51.462;12.630;2023-03-01T06:43:35;11.20;;;9.15;;
16228;SDS011;8222;51.462;12.630;2023-03-01T06:46:03;8.77;;;7.23;;
16228;SDS011;8222;51.462;12.630;2023-03-01T06:48:30;10.63;;;5.83;;
16228;SDS011;8222;51.462;12.630;2023-03-01T06:50:58;9.53;;;6.87;;
16228;SDS011;8222;51.462;12.630;2023-03-01T06:53:24;12.75;;;10.07;;
16228;SDS011;8222;51.462;12.630;2023-03-01T06:55:56;12.10;;;9.40;;
16228;SDS011;8222;51.462;12.630;2023-03-01T06:58:25;11.00;;;8.80;;
16228;SDS011;8222;51.462;12.630;2023-03-01T07:00:51;9.93;;;8.20;;
16228;SDS011;8222;51.462;12.630;2023-03-01T07:03:17;8.93;;;6.40;;
16228;SDS011;8222;51.462;12.630;2023-03-01T07:05:43;12.73;;;9.10;;
16228;SDS011;8222;51.462;12.630;2023-03-01T07:08:09;9.47;;;7.37;;
16228;SDS011;8222;51.462;12.630;2023-03-01T07:10:35;7.67;;;6.87;;
16228;SDS011;8222;51.462;12.630;2023-03-01T07:13:01;8.93;;;7.53;;
16228;SDS011;8222;51.462;12.630;2023-03-01T07:15:28;10.43;;;8.07;;
16228;SDS011;8222;51.462;12.630;2023-03-01T07:17:54;10.40;;;6.47;;
16228;SDS011;8222;51.462;12.630;2023-03-01T07:20:20;7.27;;;5.57;;
16228;SDS011;8222;51.462;12.630;2023-03-01T07:22:50;11.10;;;9.25;;
16228;SDS011;8222;51.462;12.630;2023-03-01T07:25:16;11.23;;;8.82;;
16228;SDS011;8222;51.462;12.630;2023-03-01T07:27:42;11.30;;;8.85;;
16228;SDS011;8222;51.462;12.630;2023-03-01T07:30:08;12.27;;;10.52;;
16228;SDS011;8222;51.462;12.630;2023-03-01T07:32:34;10.60;;;8.80;;
16228;SDS011;8222;51.462;12.630;2023-03-01T07:35:02;10.80;;;7.83;;
16228;SDS011;8222;51.462;12.630;2023-03-01T07:37:28;14.13;;;8.87;;
16228;SDS011;8222;51.462;12.630;2023-03-01T07:39:54;9.80;;;7.43;;
16228;SDS011;8222;51.462;12.630;2023-03-01T07:42:19;9.40;;;7.77;;
16228;SDS011;8222;51.462;12.630;2023-03-01T07:44:45;12.45;;;10.50;;
16228;SDS011;8222;51.462;12.630;2023-03-01T07:47:13;13.43;;;10.35;;
16228;SDS011;8222;51.462;12.630;2023-03-01T07:49:39;13.93;;;11.20;;
16228;SDS011;8222;51.462;12.630;2023-03-01T07:52:04;14.20;;;10.03;;
16228;SDS011;8222;51.462;12.630;2023-03-01T07:54:30;14.20;;;9.40;;
16228;SDS011;8222;51.462;12.630;2023-03-01T07:56:57;10.57;;;8.80;;
16228;SDS011;8222;51.462;12.630;2023-03-01T07:59:23;10.30;;;8.30;;
16228;SDS011;8222;51.462;12.630;2023-03-01T08:01:53;13.75;;;11.88;;
16228;SDS011;8222;51.462;12.630;2023-03-01T08:04:20;13.75;;;11.93;;
16228;SDS011;8222;51.462;12.630;2023-03-01T08:06:50;12.60;;;9.70;;
16228;SDS011;8222;51.462;12.630;2023-03-01T08:09:16;13.10;;;10.17;;
16228;SDS011;8222;51.462;12.630;2023-03-01T08:11:41;11.90;;;10.57;;
16228;SDS011;8222;51.462;12.630;2023-03-01T08:14:09;11.23;;;9.17;;
16228;SDS011;8222;51.462;12.630;2023-03-01T08:16:35;16.15;;;12.82;;
16228;SDS011;8222;51.462;12.630;2023-03-01T08:19:05;11.90;;;10.37;;
16228;SDS011;8222;51.462;12.630;2023-03-01T08:21:36;15.25;;;13.45;;
16228;SDS011;8222;51.462;12.630;2023-03-01T08:24:03;24.70;;;14.07;;
16228;SDS011;8222;51.462;12.630;2023-03-01T08:26:31;17.55;;;12.65;;
16228;SDS011;8222;51.462;12.630;2023-03-01T08:28:57;16.13;;;13.18;;
16228;SDS011;8222;51.462;12.630;2023-03-01T08:31:24;12.73;;;11.10;;
16228;SDS011;8222;51.462;12.630;2023-03-01T08:33:53;16.30;;;12.37;;
16228;SDS011;8222;51.462;12.630;2023-03-01T08:36:27;18.55;;;14.93;;
16228;SDS011;8222;51.462;12.630;2023-03-01T08:38:55;12.70;;;11.03;;
16228;SDS011;8222;51.462;12.630;2023-03-01T08:41:22;14.13;;;10.90;;
16228;SDS011;8222;51.462;12.630;2023-03-01T08:43:48;11.43;;;10.33;;
16228;SDS011;8222;51.462;12.630;2023-03-01T08:46:14;15.27;;;11.77;;
16228;SDS011;8222;51.462;12.630;2023-03-01T08:48:39;16.90;;;13.07;;
16228;SDS011;8222;51.462;12.630;2023-03-01T08:51:17;14.98;;;12.45;;
16228;SDS011;8222;51.462;12.630;2023-03-01T08:53:44;19.33;;;13.68;;
16228;SDS011;8222;51.462;12.630;2023-03-01T08:56:10;20.25;;;13.25;;
16228;SDS011;8222;51.462;12.630;2023-03-01T08:58:37;14.57;;;11.00;;
16228;SDS011;8222;51.462;12.630;2023-03-01T09:01:08;14.17;;;11.73;;
16228;SDS011;8222;51.462;12.630;2023-03-01T09:03:38;17.63;;;10.53;;
16228;SDS011;8222;51.462;12.630;2023-03-01T09:06:05;17.45;;;11.75;;
16228;SDS011;8222;51.462;12.630;2023-03-01T09:08:39;16.37;;;11.17;;
16228;SDS011;8222;51.462;12.630;2023-03-01T09:11:07;16.27;;;13.27;;
16228;SDS011;8222;51.462;12.630;2023-03-01T09:13:35;15.47;;;11.43;;
16228;SDS011;8222;51.462;12.630;2023-03-01T09:16:01;15.87;;;11.50;;
16228;SDS011;8222;51.462;12.630;2023-03-01T09:18:28;13.87;;;12.43;;
16228;SDS011;8222;51.462;12.630;2023-03-01T09:21:01;13.27;;;10.70;;
16228;SDS011;8222;51.462;12.630;2023-03-01T09:23:38;16.63;;;12.60;;
16228;SDS011;8222;51.462;12.630;2023-03-01T09:26:06;16.77;;;13.40;;
16228;SDS011;8222;51.462;12.630;2023-03-01T09:28:47;14.77;;;11.70;;
16228;SDS011;8222;51.462;12.630;2023-03-01T09:31:14;18.33;;;13.23;;
16228;SDS011;8222;51.462;12.630;2023-03-01T09:33:42;17.43;;;14.20;;
16228;SDS011;8222;51.462;12.630;2023-03-01T09:36:12;18.98;;;15.18;;
16228;SDS011;8222;51.462;12.630;2023-03-01T09:38:41;22.20;;;17.15;;
16228;SDS011;8222;51.462;12.630;2023-03-01T09:46:56;18.80;;;15.23;;
16228;SDS011;8222;51.462;12.630;2023-03-01T09:49:25;20.07;;;16.23;;
16228;SDS011;8222;51.462;12.630;2023-03-01T09:51:57;23.87;;;15.63;;
16228;SDS011;8222;51.462;12.630;2023-03-01T09:54:44;20.53;;;15.33;;
16228;SDS011;8222;51.462;12.630;2023-03-01T10:11:14;18.10;;;13.20;;
16228;SDS011;8222;51.462;12.630;2023-03-01T10:16:52;18.50;;;12.73;;
16228;SDS011;8222;51.462;12.630;2023-03-01T10:19:39;18.37;;;13.03;;
16228;SDS011;8222;51.462;12.630;2023-03-01T10:22:13;16.93;;;13.40;;
16228;SDS011;8222;51.462;12.630;2023-03-01T10:24:46;17.80;;;12.40;;
16228;SDS011;8222;51.462;12.630;2023-03-01T10:27:26;19.87;;;12.73;;
16228;SDS011;8222;51.462;12.630;2023-03-01T10:32:51;15.25;;;12.30;;
16228;SDS011;8222;51.462;12.630;2023-03-01T10:35:19;16.87;;;13.57;;
16228;SDS011;8222;51.462;12.630;2023-03-01T10:38:04;16.00;;;12.57;;
16228;SDS011;8222;51.462;12.630;2023-03-01T10:40:32;18.95;;;15.45;;
16228;SDS011;8222;51.462;12.630;2023-03-01T10:43:03;17.23;;;14.35;;
16228;SDS011;8222;51.462;12.630;2023-03-01T10:48:04;15.67;;;12.57;;
16228;SDS011;8222;51.462;12.630;2023-03-01T10:50:35;18.70;;;12.97;;
16228;SDS011;8222;51.462;12.630;2023-03-01T10:53:03;16.23;;;11.53;;
16228;SDS011;8222;51.462;12.630;2023-03-01T11:00:51;17.40;;;13.88;;
16228;SDS011;8222;51.462;12.630;2023-03-01T11:03:26;13.40;;;10.30;;
16228;SDS011;8222;51.462;12.630;2023-03-01T11:05:56;14.10;;;10.10;;
16228;SDS011;8222;51.462;12.630;2023-03-01T11:08:42;14.20;;;11.90;;
16228;SDS011;8222;51.462;12.630;2023-03-01T11:11:22;12.05;;;10.13;;
16228;SDS011;8222;51.462;12.630;2023-03-01T11:13:57;15.43;;;12.40;;
16228;SDS011;8222;51.462;12.630;2023-03-01T11:16:34;13.57;;;11.33;;
16228;SDS011;8222;51.462;12.630;2023-03-01T11:21:37;12.67;;;10.77;;
16228;SDS011;8222;51.462;12.630;2023-03-01T11:24:19;15.00;;;12.65;;
16228;SDS011;8222;51.462;12.630;2023-03-01T11:26:52;15.68;;;12.82;;
16228;SDS011;8222;51.462;12.630;2023-03-01T11:29:27;15.17;;;11.13;;
16228;SDS011;8222;51.462;12.630;2023-03-01T11:32:01;15.50;;;10.80;;
16228;SDS011;8222;51.462;12.630;2023-03-01T11:34:45;14.88;;;13.27;;
16228;SDS011;8222;51.462;12.630;2023-03-01T11:40:13;14.07;;;11.82;;
16228;SDS011;8222;51.462;12.630;2023-03-01T11:45:37;14.63;;;11.10;;
16228;SDS011;8222;51.462;12.630;2023-03-01T11:51:08;12.60;;;9.93;;
16228;SDS011;8222;51.462;12.630;2023-03-01T11:53:56;14.60;;;10.50;;
16228;SDS011;8222;51.462;12.630;2023-03-01T12:01:55;13.63;;;12.18;;
16228;SDS011;8222;51.462;12.630;2023-03-01T12:07:11;16.77;;;12.77;;
16228;SDS011;8222;51.462;12.630;2023-03-01T12:10:16;12.60;;;9.70;;
16228;SDS011;8222;51.462;12.630;2023-03-01T12:21:05;12.73;;;10.57;;
16228;SDS011;8222;51.462;12.630;2023-03-01T12:42:38;13.77;;;10.80;;
16228;SDS011;8222;51.462;12.630;2023-03-01T12:45:18;15.13;;;9.40;;
16228;SDS011;8222;51.462;12.630;2023-03-01T12:52:57;13.47;;;7.80;;
16228;SDS011;8222;51.462;12.630;2023-03-01T12:58:16;10.70;;;9.60;;
16228;SDS011;8222;51.462;12.630;2023-03-01T13:03:56;9.37;;;7.83;;
16228;SDS011;8222;51.462;12.630;2023-03-01T13:06:34;9.30;;;7.57;;
16228;SDS011;8222;51.462;12.630;2023-03-01T13:11:41;10.53;;;6.93;;
16228;SDS011;8222;51.462;12.630;2023-03-01T13:16:45;9.83;;;7.73;;
16228;SDS011;8222;51.462;12.630;2023-03-01T13:21:44;10.33;;;7.80;;
16228;SDS011;8222;51.462;12.630;2023-03-01T13:24:24;7.07;;;6.37;;
16228;SDS011;8222;51.462;12.630;2023-03-01T13:29:53;10.10;;;7.53;;
16228;SDS011;8222;51.462;12.630;2023-03-01T13:32:25;8.13;;;7.13;;
16228;SDS011;8222;51.462;12.630;2023-03-01T13:34:56;10.00;;;7.60;;
16228;SDS011;8222;51.462;12.630;2023-03-01T13:37:27;8.75;;;6.90;;
16228;SDS011;8222;51.462;12.630;2023-03-01T13:39:59;9.13;;;7.78;;
16228;SDS011;8222;51.462;12.630;2023-03-01T13:42:39;15.87;;;7.10;;
16228;SDS011;8222;51.462;12.630;2023-03-01T13:45:16;6.93;;;5.40;;
16228;SDS011;8222;51.462;12.630;2023-03-01T13:47:45;6.07;;;5.33;;
16228;SDS011;8222;51.462;12.630;2023-03-01T13:50:24;7.87;;;6.73;;
16228;SDS011;8222;51.462;12.630;2023-03-01T13:52:55;7.63;;;6.07;;
16228;SDS011;8222;51.462;12.630;2023-03-01T13:55:27;9.32;;;6.40;;
16228;SDS011;8222;51.462;12.630;2023-03-01T13:58:01;7.97;;;5.90;;
16228;SDS011;8222;51.462;12.630;2023-03-01T14:00:57;8.73;;;5.87;;
16228;SDS011;8222;51.462;12.630;2023-03-01T14:03:23;8.13;;;6.47;;
16228;SDS011;8222;51.462;12.630;2023-03-01T14:08:45;9.10;;;5.97;;
16228;SDS011;8222;51.462;12.630;2023-03-01T14:19:55;9.10;;;6.10;;
16228;SDS011;8222;51.462;12.630;2023-03-01T14:22:24;8.43;;;6.37;;
16228;SDS011;8222;51.462;12.630;2023-03-01T14:24:58;6.80;;;6.10;;
16228;SDS011;8222;51.462;12.630;2023-03-01T14:27:26;11.07;;;5.23;;
16228;SDS011;8222;51.462;12.630;2023-03-01T14:30:10;7.25;;;6.28;;
16228;SDS011;8222;51.462;12.630;2023-03-01T14:32:40;7.83;;;6.07;;
16228;SDS011;8222;51.462;12.630;2023-03-01T14:35:19;7.35;;;6.15;;
16228;SDS011;8222;51.462;12.630;2023-03-01T14:37:46;8.20;;;5.37;;
16228;SDS011;8222;51.462;12.630;2023-03-01T14:40:27;7.32;;;5.55;;
16228;SDS011;8222;51.462;12.630;2023-03-01T14:42:55;11.20;;;5.30;;
16228;SDS011;8222;51.462;12.630;2023-03-01T14:45:23;5.63;;;4.93;;
16228;SDS011;8222;51.462;12.630;2023-03-01T14:47:51;4.20;;;3.80;;
16228;SDS011;8222;51.462;12.630;2023-03-01T14:50:23;5.20;;;4.73;;
16228;SDS011;8222;51.462;12.630;2023-03-01T14:52:52;7.90;;;5.67;;
16228;SDS011;8222;51.462;12.630;2023-03-01T14:55:35;17.73;;;9.23;;
16228;SDS011;8222;51.462;12.630;2023-03-01T14:58:08;8.35;;;5.78;;
16228;SDS011;8222;51.462;12.630;2023-03-01T15:00:37;8.00;;;6.40;;
16228;SDS011;8222;51.462;12.630;2023-03-01T15:03:07;8.40;;;4.87;;
16228;SDS011;8222;51.462;12.630;2023-03-01T15:05:38;7.43;;;4.80;;
16228;SDS011;8222;51.462;12.630;2023-03-01T15:08:06;4.53;;;4.13;;
16228;SDS011;8222;51.462;12.630;2023-03-01T15:10:54;6.20;;;5.23;;
16228;SDS011;8222;51.462;12.630;2023-03-01T15:13:23;6.82;;;5.63;;
16228;SDS011;8222;51.462;12.630;2023-03-01T15:15:51;10.88;;;7.28;;
16228;SDS011;8222;51.462;12.630;2023-03-01T15:18:27;9.05;;;6.93;;
16228;SDS011;8222;51.462;12.630;2023-03-01T15:20:54;10.37;;;6.00;;
16228;SDS011;8222;51.462;12.630;2023-03-01T15:23:31;13.27;;;7.65;;
16228;SDS011;8222;51.462;12.630;2023-03-01T15:25:56;7.77;;;5.57;;
16228;SDS011;8222;51.462;12.630;2023-03-01T15:28:29;8.13;;;5.23;;
16228;SDS011;8222;51.462;12.630;2023-03-01T15:30:57;6.87;;;5.60;;
16228;SDS011;8222;51.462;12.630;2023-03-01T15:35:52;6.32;;;4.93;;
16228;SDS011;8222;51.462;12.630;2023-03-01T15:38:25;9.93;;;6.47;;
16228;SDS011;8222;51.462;12.630;2023-03-01T15:40:53;7.93;;;5.80;;
16228;SDS011;8222;51.462;12.630;2023-03-01T15:43:42;8.63;;;4.43;;
16228;SDS011;8222;51.462;12.630;2023-03-01T15:46:20;7.17;;;5.33;;
16228;SDS011;8222;51.462;12.630;2023-03-01T15:49:27;5.23;;;4.47;;
16228;SDS011;8222;51.462;12.630;2023-03-01T15:52:19;6.93;;;5.00;;
16228;SDS011;8222;51.462;12.630;2023-03-01T15:54:57;5.38;;;4.50;;
16228;SDS011;8222;51.462;12.630;2023-03-01T15:57:25;7.03;;;5.40;;
16228;SDS011;8222;51.462;12.630;2023-03-01T15:59:51;6.88;;;5.45;;
16228;SDS011;8222;51.462;12.630;2023-03-01T16:02:17;7.63;;;5.85;;
16228;SDS011;8222;51.462;12.630;2023-03-01T16:04:45;8.77;;;6.50;;
16228;SDS011;8222;51.462;12.630;2023-03-01T16:07:11;11.60;;;5.53;;
16228;SDS011;8222;51.462;12.630;2023-03-01T16:09:37;7.30;;;5.40;;
16228;SDS011;8222;51.462;12.630;2023-03-01T16:12:03;4.93;;;4.43;;
16228;SDS011;8222;51.462;12.630;2023-03-01T16:14:29;7.13;;;4.57;;
16228;SDS011;8222;51.462;12.630;2023-03-01T16:16:54;5.77;;;4.43;;
16228;SDS011;8222;51.462;12.630;2023-03-01T16:19:20;6.85;;;5.55;;
16228;SDS011;8222;51.462;12.630;2023-03-01T16:21:45;7.07;;;6.20;;
16228;SDS011;8222;51.462;12.630;2023-03-01T16:24:13;7.43;;;6.70;;
16228;SDS011;8222;51.462;12.630;2023-03-01T16:26:39;5.83;;;4.87;;
16228;SDS011;8222;51.462;12.630;2023-03-01T16:29:04;5.93;;;4.37;;
16228;SDS011;8222;51.462;12.630;2023-03-01T16:31:30;5.30;;;4.77;;
16228;SDS011;8222;51.462;12.630;2023-03-01T16:33:57;6.50;;;4.90;;
16228;SDS011;8222;51.462;12.630;2023-03-01T16:36:24;5.03;;;4.47;;
16228;SDS011;8222;51.462;12.630;2023-03-01T16:38:53;5.40;;;4.33;;
16228;SDS011;8222;51.462;12.630;2023-03-01T16:41:23;5.83;;;5.00;;
16228;SDS011;8222;51.462;12.630;2023-03-01T16:43:49;9.02;;;5.70;;
16228;SDS011;8222;51.462;12.630;2023-03-01T16:46:20;6.00;;;5.20;;
16228;SDS011;8222;51.462;12.630;2023-03-01T16:48:51;9.63;;;5.73;;
16228;SDS011;8222;51.462;12.630;2023-03-01T16:51:17;5.13;;;4.50;;
16228;SDS011;8222;51.462;12.630;2023-03-01T16:53:44;6.20;;;4.57;;
16228;SDS011;8222;51.462;12.630;2023-03-01T16:56:10;6.93;;;5.53;;
16228;SDS011;8222;51.462;12.630;2023-03-01T16:58:38;4.73;;;4.20;;
16228;SDS011;8222;51.462;12.630;2023-03-01T17:01:09;7.30;;;5.20;;